createdAt,value
2022-09-20T00:09:35.006Z,0.00
2022-09-20T00:24:36.388Z,0.00
2022-09-20T00:39:37.847Z,0.00
2022-09-20T00:54:39.394Z,0.00
2022-09-20T01:09:40.807Z,0.00
2022-09-20T01:24:42.347Z,0.00
2022-09-20T01:39:43.479Z,0.00
2022-09-20T01:54:45.730Z,0.00
2022-09-20T02:09:45.847Z,0.00
2022-09-20T02:24:47.367Z,0.00
2022-09-20T02:39:48.592Z,0.00
2022-09-20T02:54:50.867Z,0.00
2022-09-20T03:09:52.247Z,0.00
2022-09-20T03:24:53.613Z,0.00
2022-09-20T03:39:53.687Z,0.00
2022-09-20T03:54:55.065Z,0.00
2022-09-20T04:09:55.174Z,0.00
2022-09-20T04:24:57.127Z,0.00
2022-09-20T04:39:58.255Z,0.00
2022-09-20T04:55:01.766Z,11.25
2022-09-20T05:10:03.500Z,39.38
2022-09-20T05:25:05.857Z,67.50
2022-09-20T05:40:07.233Z,78.75
2022-09-20T05:55:08.654Z,95.62
2022-09-20T06:10:10.054Z,106.88
2022-09-20T06:25:10.905Z,123.75
2022-09-20T06:40:12.133Z,151.88
2022-09-20T06:55:14.448Z,253.12
2022-09-20T07:10:14.537Z,270.00
2022-09-20T07:25:15.916Z,286.88
2022-09-20T07:40:16.040Z,331.88
2022-09-20T07:55:17.084Z,331.88
2022-09-20T08:10:17.199Z,427.50
2022-09-20T08:25:17.319Z,843.75
2022-09-20T08:40:18.765Z,1119.38
2022-09-20T08:55:21.031Z,1434.38
2022-09-20T09:10:23.427Z,1676.25
2022-09-20T09:25:24.796Z,2008.12
2022-09-20T09:40:25.686Z,1518.75
2022-09-20T09:55:27.516Z,1777.50
2022-09-20T10:10:29.382Z,3048.75
2022-09-20T10:25:29.451Z,736.88
2022-09-20T10:40:31.115Z,180.00
2022-09-20T10:55:33.378Z,151.88
2022-09-20T11:10:34.775Z,388.12
2022-09-20T11:25:35.674Z,196.88
2022-09-20T11:40:37.085Z,129.38
2022-09-20T11:55:38.880Z,225.00
2022-09-20T12:10:40.705Z,163.12
2022-09-20T12:25:42.089Z,50.62
2022-09-20T12:40:43.980Z,101.25
2022-09-20T12:55:44.588Z,601.88
2022-09-20T13:10:46.017Z,1085.62
2022-09-20T13:25:47.403Z,1906.88
2022-09-20T13:40:48.288Z,1918.12
2022-09-20T13:55:49.317Z,4230.00
2022-09-20T14:10:51.348Z,4151.25
2022-09-20T14:25:52.688Z,3915.00
2022-09-20T14:40:54.053Z,3830.62
2022-09-20T14:55:55.403Z,3735.00
2022-09-20T15:10:56.779Z,286.88
2022-09-20T15:25:58.194Z,303.75
2022-09-20T15:40:59.214Z,219.38
2022-09-20T15:56:01.129Z,225.00
2022-09-20T16:11:02.772Z,146.25
2022-09-20T16:26:04.141Z,135.00
2022-09-20T16:41:05.992Z,67.50
2022-09-20T16:56:06.612Z,33.75
2022-09-20T17:11:07.960Z,5.62
2022-09-20T17:26:09.343Z,0.00
2022-09-20T17:41:10.683Z,0.00
2022-09-20T17:56:11.348Z,0.00
2022-09-20T18:11:11.632Z,0.00
2022-09-20T18:26:13.201Z,0.00
2022-09-20T18:41:13.486Z,0.00
2022-09-20T18:56:15.145Z,0.00
2022-09-20T19:11:17.430Z,0.00
2022-09-20T19:26:19.170Z,0.00
2022-09-20T19:41:20.921Z,0.00
2022-09-20T19:56:21.101Z,0.00
2022-09-20T20:11:23.627Z,0.00
2022-09-20T20:26:24.642Z,0.00
2022-09-20T20:41:26.389Z,0.00
2022-09-20T20:56:27.126Z,0.00
2022-09-20T21:11:28.555Z,0.00
2022-09-20T21:26:29.579Z,0.00
2022-09-20T21:41:30.526Z,0.00
2022-09-20T21:56:31.074Z,0.00
2022-09-20T22:11:32.519Z,0.00
2022-09-20T22:26:34.090Z,0.00
2022-09-20T22:41:35.462Z,0.00
2022-09-20T22:56:35.652Z,0.00
2022-09-20T23:11:36.762Z,0.00
2022-09-20T23:26:39.190Z,0.00
2022-09-20T23:41:41.146Z,0.00
2022-09-20T23:56:41.684Z,0.00
